^^
Saratoga-Weather Station Historical Data
Daily Summary for August 9, 2021 Units:  Metric    English   Both
Daily Weekly Monthly Yearly Custom
  High: Low: Average:
Temperature: 9.9 °C 1 °C 4.1 °C
Dew Point: 6.9 °C 0.6 °C 2.8 °C
Humidity: 98% 70% 91%
Wind Speed: 16.3km/h 0km/h 0.8km/h
Wind Gust: 16.1km/h - -
Wind- - East
Pressure: 1027.4 hPa 1024.7 hPa -
Precipitation: 0.2 mm    
Historical Graphs
 
 
Tabular Data for August 9, 2021
Time Temperature Dew Point Pressure Wind Wind Speed Wind Gust Humidity Rainfall Rate (Hourly) solar
00:03 1.4 °C 0.8 °C 1025.7 hPa Calm     96% 0.0 mm 0 W/m2
00:08 1.4 °C 0.8 °C 1025.7 hPa Calm     96% 0.0 mm 0 W/m2
00:13 1.3 °C 0.7 °C 1025.7 hPa Calm     96% 0.0 mm 0 W/m2
00:18 1.3 °C 0.7 °C 1025.7 hPa Calm     96% 0.0 mm 0 W/m2
00:23 1.3 °C 0.7 °C 1025.7 hPa Calm     96% 0.0 mm 0 W/m2
00:28 1.3 °C 0.7 °C 1025.7 hPa Calm     96% 0.0 mm 0 W/m2
00:33 1.3 °C 0.7 °C 1025.7 hPa Calm     96% 0.0 mm 0 W/m2
00:38 1.4 °C 0.8 °C 1025.7 hPa Calm     96% 0.0 mm 0 W/m2
00:43 1.4 °C 0.8 °C 1025.7 hPa Calm     96% 0.0 mm 0 W/m2
00:48 1.4 °C 0.8 °C 1025.7 hPa Calm     96% 0.0 mm 0 W/m2
00:53 1.6 °C 1 °C 1025.7 hPa Calm     96% 0.0 mm 0 W/m2
00:58 1.6 °C 1.2 °C 1025.7 hPa Calm     97% 0.0 mm 0 W/m2
01:03 1.6 °C 1 °C 1025.7 hPa Calm     96% 0.0 mm 0 W/m2
01:08 1.7 °C 1.1 °C 1025.7 hPa Calm     96% 0.0 mm 0 W/m2
01:13 1.8 °C 1.2 °C 1025.7 hPa Calm     96% 0.0 mm 0 W/m2
01:18 1.9 °C 1.5 °C 1025.7 hPa Calm     97% 0.0 mm 0 W/m2
01:23 2 °C 1.6 °C 1025.7 hPa Calm     97% 0.0 mm 0 W/m2
01:28 2.1 °C 1.7 °C 1025.7 hPa Calm     97% 0.0 mm 0 W/m2
01:33 2.1 °C 1.7 °C 1025.7 hPa Calm     97% 0.0 mm 0 W/m2
01:38 2.2 °C 1.8 °C 1025.7 hPa Calm   3.2 km/h 97% 0.0 mm 0 W/m2
01:43 2.2 °C 1.8 °C 1025.7 hPa Calm     97% 0.0 mm 0 W/m2
01:48 2.2 °C 1.8 °C 1025.7 hPa Calm   3.2 km/h 97% 0.0 mm 0 W/m2
01:53 2.3 °C 1.9 °C 1025.7 hPa Calm     97% 0.0 mm 0 W/m2
01:58 2.3 °C 1.9 °C 1025.7 hPa Calm     97% 0.0 mm 0 W/m2
02:03 2.3 °C 1.9 °C 1025.7 hPa Calm     97% 0.0 mm 0 W/m2
02:08 2.3 °C 1.9 °C 1025.7 hPa Calm     97% 0.0 mm 0 W/m2
02:13 2.3 °C 1.9 °C 1025.7 hPa Calm     97% 0.0 mm 0 W/m2
02:18 2.3 °C 1.9 °C 1025.7 hPa Calm     97% 0.0 mm 0 W/m2
02:23 2.3 °C 1.9 °C 1025.7 hPa Calm     97% 0.0 mm 0 W/m2
02:28 2.3 °C 1.9 °C 1025.7 hPa Calm     97% 0.0 mm 0 W/m2
02:33 2.3 °C 1.9 °C 1025.7 hPa Calm     97% 0.0 mm 0 W/m2
02:38 2.3 °C 1.9 °C 1025.7 hPa Calm     97% 0.0 mm 0 W/m2
02:43 2.3 °C 1.9 °C 1026.1 hPa Calm     97% 0.0 mm 0 W/m2
02:48 2.3 °C 1.9 °C 1025.7 hPa Calm     97% 0.0 mm 0 W/m2
02:53 2.3 °C 1.9 °C 1025.7 hPa Calm     97% 0.0 mm 0 W/m2
02:58 2.3 °C 1.9 °C 1025.7 hPa Calm     97% 0.0 mm 0 W/m2
03:03 2.3 °C 1.9 °C 1025.7 hPa Calm     97% 0.0 mm 0 W/m2
03:08 2.3 °C 1.9 °C 1025.7 hPa Calm     97% 0.0 mm 0 W/m2
03:13 2.3 °C 1.9 °C 1025.7 hPa Calm     97% 0.0 mm 0 W/m2
03:18 2.3 °C 1.9 °C 1025.7 hPa Calm     97% 0.0 mm 0 W/m2
03:23 2.3 °C 1.9 °C 1025.7 hPa Calm     97% 0.0 mm 0 W/m2
03:28 2.3 °C 1.9 °C 1025.7 hPa Calm     97% 0.2 mm 0 W/m2
03:33 2.3 °C 1.9 °C 1025.7 hPa Calm     97% 0.2 mm 0 W/m2
03:38 2.3 °C 1.9 °C 1025.7 hPa Calm     97% 0.2 mm 0 W/m2
03:43 2.3 °C 1.9 °C 1025.7 hPa Calm     97% 0.2 mm 0 W/m2
03:48 2.3 °C 1.9 °C 1025.7 hPa Calm     97% 0.2 mm 0 W/m2
03:53 2.3 °C 1.9 °C 1025.7 hPa Calm     97% 0.2 mm 0 W/m2
03:58 2.3 °C 1.9 °C 1025.7 hPa Calm     97% 0.2 mm 0 W/m2
04:03 2.4 °C 2 °C 1025.7 hPa Calm     97% 0.2 mm 0 W/m2
04:08 2.4 °C 2 °C 1025.7 hPa Calm   4.8 km/h 97% 0.2 mm 0 W/m2
04:13 2.4 °C 2 °C 1025.7 hPa ENE 1.4 km/h 1.6 km/h 97% 0.2 mm 0 W/m2
04:18 2.4 °C 2 °C 1025.7 hPa Calm     97% 0.2 mm 0 W/m2
04:23 2.4 °C 2 °C 1025.7 hPa Calm     97% 0.0 mm 0 W/m2
04:28 2.3 °C 1.9 °C 1025.7 hPa Calm     97% 0.0 mm 0 W/m2
04:33 2.3 °C 1.9 °C 1026.1 hPa Calm     97% 0.0 mm 0 W/m2
04:38 2.3 °C 1.9 °C 1026.1 hPa Calm     97% 0.0 mm 0 W/m2
04:43 2.3 °C 1.9 °C 1026.1 hPa ENE 3.2 km/h 4.8 km/h 97% 0.0 mm 0 W/m2
04:48 2.2 °C 1.8 °C 1026.1 hPa ESE 3.2 km/h 6.4 km/h 97% 0.0 mm 0 W/m2
04:53 2.2 °C 1.8 °C 1026.1 hPa East 3.2 km/h 3.2 km/h 97% 0.0 mm 0 W/m2
04:58 2.1 °C 1.7 °C 1026.1 hPa East 1.4 km/h 1.6 km/h 97% 0.0 mm 0 W/m2
05:03 2.1 °C 1.7 °C 1026.1 hPa Calm   3.2 km/h 97% 0.0 mm 0 W/m2
05:08 2.1 °C 1.7 °C 1026.1 hPa Calm   1.6 km/h 97% 0.0 mm 0 W/m2
05:13 2 °C 1.6 °C 1026.1 hPa Calm     97% 0.0 mm 0 W/m2
05:18 1.9 °C 1.5 °C 1026.1 hPa Calm   3.2 km/h 97% 0.0 mm 0 W/m2
05:23 1.9 °C 1.5 °C 1026.4 hPa Calm     97% 0.0 mm 0 W/m2
05:28 1.9 °C 1.5 °C 1026.4 hPa Calm   3.2 km/h 97% 0.0 mm 0 W/m2
05:33 1.9 °C 1.5 °C 1026.4 hPa Calm     97% 0.0 mm 0 W/m2
05:38 1.9 °C 1.5 °C 1026.4 hPa Calm   3.2 km/h 97% 0.0 mm 0 W/m2
05:43 1.8 °C 1.4 °C 1026.4 hPa Calm     97% 0.0 mm 0 W/m2
05:48 1.8 °C 1.4 °C 1026.4 hPa Calm   1.6 km/h 97% 0.0 mm 0 W/m2
05:53 1.8 °C 1.4 °C 1026.4 hPa Calm     97% 0.0 mm 0 W/m2
05:58 1.8 °C 1.4 °C 1026.4 hPa Calm     97% 0.0 mm 0 W/m2
06:03 1.8 °C 1.4 °C 1026.4 hPa Calm     97% 0.0 mm 0 W/m2
06:08 1.8 °C 1.4 °C 1026.8 hPa Calm     97% 0.0 mm 0 W/m2
06:13 1.8 °C 1.4 °C 1026.8 hPa Calm     97% 0.0 mm 0 W/m2
06:19 1.7 °C 1.3 °C 1026.8 hPa Calm     97% 0.0 mm 0 W/m2
06:24 1.8 °C 1.4 °C 1026.4 hPa Calm     97% 0.0 mm 0 W/m2
06:29 1.8 °C 1.4 °C 1026.4 hPa Calm     97% 0.0 mm 0 W/m2
06:34 1.7 °C 1.3 °C 1026.8 hPa Calm     97% 0.0 mm 0 W/m2
06:39 1.7 °C 1.3 °C 1026.8 hPa ENE 1.4 km/h 1.6 km/h 97% 0.0 mm 0 W/m2
06:44 1.6 °C 1.2 °C 1026.8 hPa ENE 1.4 km/h 1.6 km/h 97% 0.0 mm 0 W/m2
06:49 1.4 °C 1 °C 1026.8 hPa Calm   1.6 km/h 97% 0.0 mm 0 W/m2
06:54 1.3 °C 0.9 °C 1026.8 hPa ENE 3.2 km/h 3.2 km/h 97% 0.0 mm 0 W/m2
06:59 1.2 °C 0.8 °C 1026.8 hPa Calm   1.6 km/h 97% 0.0 mm 0 W/m2
07:04 1.2 °C 0.8 °C 1026.8 hPa Calm     97% 0.0 mm 0 W/m2
07:09 1.1 °C 0.7 °C 1026.8 hPa Calm     97% 0.0 mm 0 W/m2
07:14 1.1 °C 0.7 °C 1026.8 hPa Calm     97% 0.0 mm 0 W/m2
07:19 1 °C 0.6 °C 1026.8 hPa Calm     97% 0.0 mm 0 W/m2
07:24 1 °C 0.6 °C 1026.8 hPa Calm     97% 0.0 mm 0 W/m2
07:29 1 °C 0.6 °C 1026.8 hPa Calm     97% 0.0 mm 0 W/m2
07:34 1 °C 0.6 °C 1026.8 hPa Calm     97% 0.0 mm 0 W/m2
07:39 1 °C 0.6 °C 1026.8 hPa Calm     97% 0.0 mm 5 W/m2
07:44 1.1 °C 0.7 °C 1026.8 hPa Calm     97% 0.0 mm 7 W/m2
07:49 1.1 °C 0.7 °C 1026.8 hPa Calm     97% 0.0 mm 11 W/m2
07:54 1.2 °C 0.8 °C 1026.8 hPa Calm     97% 0.0 mm 12 W/m2
07:59 1.2 °C 0.8 °C 1026.8 hPa Calm     97% 0.0 mm 19 W/m2
08:04 1.2 °C 0.8 °C 1027.1 hPa Calm     97% 0.0 mm 23 W/m2
08:09 1.2 °C 0.8 °C 1027.1 hPa Calm     97% 0.0 mm 25 W/m2
08:14 1.2 °C 0.8 °C 1027.1 hPa Calm     97% 0.0 mm 26 W/m2
08:19 1.1 °C 0.7 °C 1027.1 hPa Calm     97% 0.0 mm 30 W/m2
08:24 1.1 °C 0.7 °C 1027.4 hPa Calm     97% 0.0 mm 37 W/m2
08:29 1.1 °C 0.7 °C 1027.4 hPa Calm     97% 0.0 mm 42 W/m2
08:34 1.1 °C 0.7 °C 1027.4 hPa Calm     97% 0.0 mm 47 W/m2
08:39 1.1 °C 0.7 °C 1027.4 hPa Calm     97% 0.0 mm 39 W/m2
08:44 1.1 °C 0.7 °C 1027.4 hPa Calm     97% 0.0 mm 51 W/m2
08:49 1.1 °C 0.7 °C 1027.4 hPa Calm     97% 0.0 mm 54 W/m2
08:54 1.1 °C 0.7 °C 1027.4 hPa Calm     97% 0.0 mm 70 W/m2
08:59 1.2 °C 0.8 °C 1027.4 hPa Calm     97% 0.0 mm 74 W/m2
09:04 1.2 °C 0.8 °C 1027.4 hPa Calm     97% 0.0 mm 83 W/m2
09:09 1.3 °C 0.9 °C 1027.4 hPa Calm     97% 0.0 mm 67 W/m2
09:14 1.3 °C 0.9 °C 1027.4 hPa Calm     97% 0.0 mm 70 W/m2
09:19 1.4 °C 1 °C 1027.4 hPa Calm     97% 0.0 mm 58 W/m2
09:24 1.4 °C 1 °C 1027.4 hPa Calm     97% 0.0 mm 72 W/m2
09:29 1.5 °C 1.1 °C 1027.4 hPa NE 1.4 km/h 1.6 km/h 97% 0.0 mm 77 W/m2
09:34 1.5 °C 1.1 °C 1027.4 hPa Calm     97% 0.0 mm 70 W/m2
09:39 1.6 °C 1.2 °C 1027.4 hPa East 1.4 km/h 3.2 km/h 97% 0.0 mm 65 W/m2
09:44 1.6 °C 1.2 °C 1027.4 hPa Calm   1.6 km/h 97% 0.0 mm 63 W/m2
09:49 1.6 °C 1.2 °C 1027.4 hPa Calm   1.6 km/h 97% 0.0 mm 79 W/m2
09:54 1.6 °C 1.2 °C 1027.4 hPa Calm     97% 0.0 mm 88 W/m2
09:59 1.7 °C 1.3 °C 1027.4 hPa Calm     97% 0.0 mm 74 W/m2
10:04 1.8 °C 1.4 °C 1027.4 hPa Calm     97% 0.0 mm 84 W/m2
10:09 1.9 °C 1.5 °C 1027.4 hPa Calm     97% 0.0 mm 70 W/m2
10:14 2.1 °C 1.7 °C 1027.4 hPa Calm     97% 0.0 mm 46 W/m2
10:19 2.1 °C 1.7 °C 1027.4 hPa Calm     97% 0.0 mm 47 W/m2
10:24 2.2 °C 1.8 °C 1027.4 hPa Calm     97% 0.0 mm 44 W/m2
10:29 2.2 °C 1.8 °C 1027.4 hPa Calm     97% 0.0 mm 44 W/m2
10:34 2.3 °C 1.9 °C 1027.4 hPa Calm     97% 0.0 mm 37 W/m2
10:39 2.4 °C 2 °C 1027.4 hPa Calm     97% 0.0 mm 37 W/m2
10:44 2.6 °C 2.2 °C 1027.4 hPa Calm     97% 0.0 mm 40 W/m2
10:49 2.7 °C 2.3 °C 1027.4 hPa Calm     97% 0.0 mm 58 W/m2
10:54 2.8 °C 2.4 °C 1027.4 hPa ENE 1.4 km/h 3.2 km/h 97% 0.0 mm 39 W/m2
10:59 2.9 °C 2.5 °C 1027.4 hPa Calm     97% 0.0 mm 40 W/m2
11:04 3.1 °C 2.8 °C 1027.4 hPa ENE 3.2 km/h 3.2 km/h 98% 0.0 mm 42 W/m2
11:09 3.2 °C 2.8 °C 1027.4 hPa Calm     97% 0.0 mm 44 W/m2
11:14 3.3 °C 2.9 °C 1027.4 hPa Calm     97% 0.0 mm 37 W/m2
11:19 3.4 °C 3.1 °C 1027.4 hPa Calm     98% 0.0 mm 44 W/m2
11:24 3.6 °C 3.2 °C 1027.4 hPa Calm     97% 0.0 mm 35 W/m2
11:29 3.8 °C 3.5 °C 1027.4 hPa Calm     98% 0.0 mm 40 W/m2
11:34 3.9 °C 3.6 °C 1027.4 hPa Calm     98% 0.0 mm 39 W/m2
11:39 4.1 °C 3.7 °C 1027.1 hPa Calm     97% 0.0 mm 39 W/m2
11:44 4.2 °C 3.9 °C 1027.1 hPa Calm     98% 0.0 mm 107 W/m2
11:49 4.4 °C 4.1 °C 1027.1 hPa Calm   3.2 km/h 98% 0.0 mm 109 W/m2
11:54 4.7 °C 4.4 °C 1027.1 hPa Calm   1.6 km/h 98% 0.0 mm 121 W/m2
11:59 5 °C 4.7 °C 1027.1 hPa NE 1.4 km/h 3.2 km/h 98% 0.0 mm 56 W/m2
12:04 5.2 °C 4.9 °C 1027.1 hPa Calm   1.6 km/h 98% 0.0 mm 74 W/m2
12:09 5.3 °C 5 °C 1027.1 hPa Calm   3.2 km/h 98% 0.0 mm 44 W/m2
12:14 5.4 °C 5.1 °C 1026.8 hPa North 1.4 km/h 1.6 km/h 98% 0.0 mm 47 W/m2
12:19 5.6 °C 5.3 °C 1026.8 hPa Calm     98% 0.0 mm 63 W/m2
12:24 5.7 °C 5.4 °C 1026.8 hPa ENE 6.4 km/h 8 km/h 98% 0.0 mm 42 W/m2
12:29 5.9 °C 5.6 °C 1026.8 hPa ENE 1.4 km/h 6.4 km/h 98% 0.0 mm 65 W/m2
12:34 6.2 °C 5.9 °C 1026.8 hPa ESE 6.4 km/h 9.7 km/h 98% 0.0 mm 51 W/m2
12:39 6.4 °C 6.1 °C 1026.4 hPa ENE 3.2 km/h 6.4 km/h 98% 0.0 mm 35 W/m2
12:44 6.8 °C 6.5 °C 1026.4 hPa North 4.7 km/h 9.7 km/h 98% 0.0 mm 37 W/m2
12:49 7.2 °C 6.8 °C 1026.1 hPa East 3.2 km/h 8 km/h 97% 0.0 mm 39 W/m2
12:54 7.7 °C 6.9 °C 1026.1 hPa East 3.2 km/h 9.7 km/h 95% 0.0 mm 46 W/m2
12:59 8 °C 6.1 °C 1025.7 hPa East 6.4 km/h 8 km/h 88% 0.0 mm 51 W/m2
13:04 8.3 °C 5.8 °C 1025.7 hPa East 1.4 km/h 9.7 km/h 84% 0.0 mm 149 W/m2
13:09 8.5 °C 5.6 °C 1025.7 hPa East 3.2 km/h 9.7 km/h 82% 0.0 mm 97 W/m2
13:14 8.6 °C 5.3 °C 1025.7 hPa East 4.7 km/h 9.7 km/h 80% 0.0 mm 33 W/m2
13:19 8.7 °C 5.3 °C 1025.7 hPa ENE 4.7 km/h 12.9 km/h 79% 0.0 mm 46 W/m2
13:24 8.8 °C 5.4 °C 1025.7 hPa NNE 1.4 km/h 4.8 km/h 79% 0.0 mm 67 W/m2
13:29 8.9 °C 5.5 °C 1025.7 hPa ENE 3.2 km/h 11.3 km/h 79% 0.0 mm 74 W/m2
13:34 8.9 °C 5.3 °C 1025.7 hPa NE 4.7 km/h 8 km/h 78% 0.0 mm 56 W/m2
13:39 9.1 °C 5.3 °C 1025.7 hPa NE 7.9 km/h 8 km/h 77% 0.0 mm 39 W/m2
13:44 9.1 °C 5.3 °C 1025.4 hPa East 11.1 km/h 11.3 km/h 77% 0.0 mm 84 W/m2
13:49 9.2 °C 5.4 °C 1025.4 hPa East 4.7 km/h 6.4 km/h 77% 0.0 mm 40 W/m2
13:54 9.3 °C 5.5 °C 1025.4 hPa NE 1.4 km/h 6.4 km/h 77% 0.0 mm 32 W/m2
13:59 9.4 °C 5.6 °C 1025.4 hPa ESE 1.4 km/h 3.2 km/h 77% 0.0 mm 42 W/m2
14:04 9.4 °C 5.2 °C 1025.4 hPa ENE 1.4 km/h 9.7 km/h 75% 0.0 mm 39 W/m2
14:09 9.6 °C 5.2 °C 1025.4 hPa SE 6.4 km/h 6.4 km/h 74% 0.0 mm 32 W/m2
14:14 9.7 °C 4.9 °C 1025.4 hPa Calm   8 km/h 72% 0.0 mm 30 W/m2
14:19 9.8 °C 5.2 °C 1025.4 hPa ENE 6.4 km/h 12.9 km/h 73% 0.0 mm 30 W/m2
14:24 9.8 °C 4.8 °C 1025.4 hPa ENE 16.3 km/h 16.1 km/h 71% 0.0 mm 28 W/m2
14:29 9.9 °C 4.7 °C 1025.4 hPa ESE 4.7 km/h 12.9 km/h 70% 0.0 mm 30 W/m2
14:34 9.9 °C 5.1 °C 1025.4 hPa SE 3.2 km/h 16.1 km/h 72% 0.0 mm 28 W/m2
14:39 9.8 °C 4.6 °C 1025.4 hPa ESE 1.4 km/h 9.7 km/h 70% 0.0 mm 28 W/m2
14:44 9.8 °C 5 °C 1025.4 hPa East 4.7 km/h 4.8 km/h 72% 0.0 mm 28 W/m2
14:49 9.7 °C 4.9 °C 1025.4 hPa Calm   6.4 km/h 72% 0.0 mm 28 W/m2
14:54 9.7 °C 5.3 °C 1025.1 hPa East 3.2 km/h 3.2 km/h 74% 0.0 mm 28 W/m2
14:59 9.6 °C 5 °C 1025.1 hPa SE 3.2 km/h 4.8 km/h 73% 0.0 mm 26 W/m2
15:04 9.4 °C 4.8 °C 1025.1 hPa East 4.7 km/h 6.4 km/h 73% 0.0 mm 26 W/m2
15:09 9.4 °C 4.8 °C 1025.1 hPa NE 4.7 km/h 6.4 km/h 73% 0.0 mm 26 W/m2
15:14 9.6 °C 4.6 °C 1025.1 hPa East 4.7 km/h 4.8 km/h 71% 0.0 mm 26 W/m2
15:20 9.7 °C 4.5 °C 1025.1 hPa Calm   4.8 km/h 70% 0.0 mm 26 W/m2
15:25 9.8 °C 4.8 °C 1025.1 hPa ESE 1.4 km/h 3.2 km/h 71% 0.0 mm 26 W/m2
15:30 9.7 °C 4.5 °C 1025.1 hPa SE 6.4 km/h 9.7 km/h 70% 0.0 mm 28 W/m2
15:35 9.6 °C 4.6 °C 1025.1 hPa NE 1.4 km/h 6.4 km/h 71% 0.0 mm 28 W/m2
15:40 9.6 °C 4.6 °C 1025.1 hPa East 1.4 km/h 4.8 km/h 71% 0.0 mm 28 W/m2
15:45 9.5 °C 4.5 °C 1025.1 hPa East 3.2 km/h 11.3 km/h 71% 0.0 mm 28 W/m2
15:50 9.6 °C 4.4 °C 1025.1 hPa NE 4.7 km/h 6.4 km/h 70% 0.0 mm 28 W/m2
15:55 9.6 °C 4.4 °C 1025.1 hPa East 4.7 km/h 9.7 km/h 70% 0.0 mm 28 W/m2
16:00 9.5 °C 4.7 °C 1025.1 hPa Calm   1.6 km/h 72% 0.0 mm 26 W/m2
16:05 9.3 °C 4.5 °C 1025.1 hPa Calm   6.4 km/h 72% 0.0 mm 25 W/m2
16:10 9.2 °C 4.6 °C 1024.7 hPa ESE 1.4 km/h 1.6 km/h 73% 0.0 mm 23 W/m2
16:15 9.1 °C 4.7 °C 1024.7 hPa East 4.7 km/h 6.4 km/h 74% 0.0 mm 21 W/m2
16:20 8.9 °C 4.5 °C 1024.7 hPa ENE 1.4 km/h 3.2 km/h 74% 0.0 mm 19 W/m2
16:25 8.8 °C 4.6 °C 1024.7 hPa Calm   1.6 km/h 75% 0.0 mm 18 W/m2
16:30 8.7 °C 4.7 °C 1024.7 hPa Calm     76% 0.0 mm 16 W/m2
16:35 8.5 °C 4.7 °C 1024.7 hPa Calm     77% 0.0 mm 16 W/m2
16:40 8.3 °C 4.7 °C 1024.7 hPa Calm     78% 0.0 mm 14 W/m2
16:45 8.2 °C 4.6 °C 1024.7 hPa East 1.4 km/h 1.6 km/h 78% 0.0 mm 12 W/m2
16:50 8.2 °C 4.8 °C 1024.7 hPa Calm     79% 0.0 mm 11 W/m2
16:55 8.2 °C 5 °C 1024.7 hPa Calm   1.6 km/h 80% 0.0 mm 9 W/m2
17:00 8.1 °C 4.9 °C 1024.7 hPa East 1.4 km/h 1.6 km/h 80% 0.0 mm 5 W/m2
17:05 8 °C 4.9 °C 1024.7 hPa Calm     81% 0.0 mm 5 W/m2
17:10 7.9 °C 4.8 °C 1024.7 hPa Calm     81% 0.0 mm 0 W/m2
17:15 7.7 °C 4.8 °C 1025.1 hPa Calm   1.6 km/h 82% 0.0 mm 0 W/m2
17:20 7.6 °C 4.7 °C 1024.7 hPa Calm     82% 0.0 mm 0 W/m2
17:25 7.4 °C 4.7 °C 1024.7 hPa East 1.4 km/h 3.2 km/h 83% 0.0 mm 0 W/m2
17:30 7.3 °C 4.8 °C 1024.7 hPa Calm     84% 0.0 mm 0 W/m2
17:35 7.3 °C 4.8 °C 1025.1 hPa Calm   1.6 km/h 84% 0.0 mm 0 W/m2
17:40 7.1 °C 4.7 °C 1024.7 hPa Calm   1.6 km/h 85% 0.0 mm 0 W/m2
17:45 7 °C 4.7 °C 1024.7 hPa Calm   1.6 km/h 85% 0.0 mm 0 W/m2
17:50 6.8 °C 4.5 °C 1025.1 hPa Calm     85% 0.0 mm 0 W/m2
17:55 6.6 °C 4.4 °C 1025.1 hPa SE 1.4 km/h 3.2 km/h 86% 0.0 mm 0 W/m2
18:00 6.5 °C 4.5 °C 1025.1 hPa Calm   1.6 km/h 87% 0.0 mm 0 W/m2
18:06 6.4 °C 4.4 °C 1025.1 hPa Calm     87% 0.0 mm 0 W/m2
18:11 6.3 °C 4.3 °C 1025.1 hPa Calm     87% 0.0 mm 0 W/m2
18:16 6.3 °C 4.5 °C 1025.1 hPa Calm     88% 0.0 mm 0 W/m2
18:21 6.2 °C 4.4 °C 1025.1 hPa Calm     88% 0.0 mm 0 W/m2
18:26 6.1 °C 4.3 °C 1025.1 hPa Calm     88% 0.0 mm 0 W/m2
18:31 5.9 °C 4.1 °C 1025.4 hPa Calm     88% 0.0 mm 0 W/m2
18:36 5.8 °C 4 °C 1025.1 hPa Calm     88% 0.0 mm 0 W/m2
18:41 5.7 °C 4 °C 1025.4 hPa Calm     89% 0.0 mm 0 W/m2
18:46 5.6 °C 3.9 °C 1025.4 hPa Calm     89% 0.0 mm 0 W/m2
18:51 5.4 °C 3.7 °C 1025.4 hPa Calm     89% 0.0 mm 0 W/m2
18:56 5.3 °C 3.6 °C 1025.4 hPa Calm     89% 0.0 mm 0 W/m2
19:01 5.2 °C 3.7 °C 1025.4 hPa Calm     90% 0.0 mm 0 W/m2
19:06 5.2 °C 3.7 °C 1025.4 hPa Calm   3.2 km/h 90% 0.0 mm 0 W/m2
19:11 5.1 °C 3.6 °C 1025.4 hPa Calm     90% 0.0 mm 0 W/m2
19:16 5.1 °C 3.6 °C 1025.4 hPa Calm   3.2 km/h 90% 0.0 mm 0 W/m2
19:21 5 °C 3.5 °C 1025.4 hPa Calm     90% 0.0 mm 0 W/m2
19:26 4.9 °C 3.4 °C 1025.4 hPa Calm     90% 0.0 mm 0 W/m2
19:31 4.9 °C 3.6 °C 1025.4 hPa Calm     91% 0.0 mm 0 W/m2
19:36 4.8 °C 3.5 °C 1025.4 hPa Calm     91% 0.0 mm 0 W/m2
19:41 4.8 °C 3.5 °C 1025.4 hPa Calm   1.6 km/h 91% 0.0 mm 0 W/m2
19:46 4.7 °C 3.4 °C 1025.4 hPa Calm     91% 0.0 mm 0 W/m2
19:51 4.7 °C 3.4 °C 1025.4 hPa SE 1.4 km/h 1.6 km/h 91% 0.0 mm 0 W/m2
19:56 4.6 °C 3.3 °C 1025.4 hPa Calm   1.6 km/h 91% 0.0 mm 0 W/m2
20:01 4.6 °C 3.3 °C 1025.4 hPa Calm   3.2 km/h 91% 0.0 mm 0 W/m2
20:06 4.6 °C 3.3 °C 1025.4 hPa Calm   3.2 km/h 91% 0.0 mm 0 W/m2
20:11 4.7 °C 3.5 °C 1025.4 hPa ESE 1.4 km/h 3.2 km/h 92% 0.0 mm 0 W/m2
20:16 4.8 °C 3.6 °C 1025.1 hPa ESE 1.4 km/h 3.2 km/h 92% 0.0 mm 0 W/m2
20:21 4.9 °C 3.7 °C 1025.1 hPa Calm   3.2 km/h 92% 0.0 mm 0 W/m2
20:26 5 °C 3.7 °C 1025.1 hPa ESE 3.2 km/h 3.2 km/h 91% 0.0 mm 0 W/m2
20:31 5 °C 3.7 °C 1025.1 hPa Calm   1.6 km/h 91% 0.0 mm 0 W/m2
20:36 4.9 °C 3.4 °C 1025.4 hPa SE 1.4 km/h 3.2 km/h 90% 0.0 mm 0 W/m2
20:41 4.9 °C 3.4 °C 1025.4 hPa SE 1.4 km/h 3.2 km/h 90% 0.0 mm 0 W/m2
20:46 4.8 °C 3.3 °C 1025.4 hPa SE 1.4 km/h 1.6 km/h 90% 0.0 mm 0 W/m2
20:51 4.7 °C 3.2 °C 1025.4 hPa Calm     90% 0.0 mm 0 W/m2
20:56 4.5 °C 3 °C 1025.4 hPa Calm     90% 0.0 mm 0 W/m2
21:01 4.4 °C 2.9 °C 1025.4 hPa Calm     90% 0.0 mm 0 W/m2
21:06 4.3 °C 3 °C 1025.4 hPa Calm     91% 0.0 mm 0 W/m2
21:11 4.2 °C 2.9 °C 1025.4 hPa Calm     91% 0.0 mm 0 W/m2
21:16 4.1 °C 2.8 °C 1025.4 hPa Calm   3.2 km/h 91% 0.0 mm 0 W/m2
21:21 4 °C 2.8 °C 1025.4 hPa Calm   1.6 km/h 92% 0.0 mm 0 W/m2
21:26 3.9 °C 2.7 °C 1025.4 hPa Calm     92% 0.0 mm 0 W/m2
21:31 3.9 °C 2.7 °C 1025.1 hPa Calm     92% 0.0 mm 0 W/m2
21:36 3.8 °C 2.6 °C 1025.4 hPa Calm     92% 0.0 mm 0 W/m2
21:41 3.8 °C 2.6 °C 1025.1 hPa Calm     92% 0.0 mm 0 W/m2
21:46 3.8 °C 2.8 °C 1025.1 hPa Calm     93% 0.0 mm 0 W/m2
21:51 3.8 °C 2.8 °C 1025.4 hPa Calm     93% 0.0 mm 0 W/m2
21:56 3.7 °C 2.7 °C 1025.1 hPa Calm     93% 0.0 mm 0 W/m2
22:01 3.7 °C 2.7 °C 1025.1 hPa Calm     93% 0.0 mm 0 W/m2
22:06 3.6 °C 2.6 °C 1025.1 hPa Calm     93% 0.0 mm 0 W/m2
22:11 3.5 °C 2.5 °C 1025.4 hPa Calm     93% 0.0 mm 0 W/m2
22:16 3.4 °C 2.4 °C 1025.4 hPa Calm     93% 0.0 mm 0 W/m2
22:21 3.3 °C 2.3 °C 1025.4 hPa Calm   1.6 km/h 93% 0.0 mm 0 W/m2
22:26 3.2 °C 2.2 °C 1025.4 hPa Calm     93% 0.0 mm 0 W/m2
22:31 3.1 °C 2.1 °C 1025.4 hPa Calm   1.6 km/h 93% 0.0 mm 0 W/m2
22:36 3 °C 2 °C 1025.4 hPa Calm     93% 0.0 mm 0 W/m2
22:41 2.9 °C 1.9 °C 1025.4 hPa Calm     93% 0.0 mm 0 W/m2
22:46 2.8 °C 1.8 °C 1025.1 hPa Calm     93% 0.0 mm 0 W/m2
22:51 2.8 °C 1.9 °C 1025.1 hPa SW 3.2 km/h 3.2 km/h 94% 0.0 mm 0 W/m2
22:56 2.8 °C 1.9 °C 1025.1 hPa Calm     94% 0.0 mm 0 W/m2
23:01 2.7 °C 1.8 °C 1025.1 hPa Calm     94% 0.0 mm 0 W/m2
23:06 2.7 °C 1.8 °C 1025.1 hPa Calm     94% 0.0 mm 0 W/m2
23:11 2.7 °C 1.8 °C 1025.1 hPa Calm     94% 0.0 mm 0 W/m2
23:16 2.7 °C 1.8 °C 1025.1 hPa Calm     94% 0.0 mm 0 W/m2
23:21 2.7 °C 1.8 °C 1025.1 hPa Calm     94% 0.0 mm 0 W/m2
23:26 2.6 °C 1.7 °C 1025.1 hPa Calm     94% 0.0 mm 0 W/m2
23:31 2.6 °C 1.7 °C 1025.1 hPa Calm     94% 0.0 mm 0 W/m2
23:36 2.6 °C 1.7 °C 1025.4 hPa Calm     94% 0.0 mm 0 W/m2
23:41 2.5 °C 1.6 °C 1025.1 hPa Calm     94% 0.0 mm 0 W/m2
23:46 2.4 °C 1.5 °C 1025.1 hPa Calm     94% 0.0 mm 0 W/m2
23:51 2.4 °C 1.5 °C 1025.4 hPa Calm     94% 0.0 mm 0 W/m2
23:56 2.4 °C 1.7 °C 1025.4 hPa Calm   1.6 km/h 95% 0.0 mm 0 W/m2
Juneau County Weather
Compliments of Weather Underground - 4 mb